createdAt,value
2023-04-20T00:01:57.069Z,11.95
2023-04-20T00:06:29.657Z,13.17
2023-04-20T00:10:59.872Z,10.75
2023-04-20T00:15:24.270Z,12.63
2023-04-20T00:19:48.351Z,13.63
2023-04-20T00:24:14.706Z,10.40
2023-04-20T00:28:41.288Z,12.48
2023-04-20T00:33:08.733Z,14.07
2023-04-20T00:37:33.706Z,13.23
2023-04-20T00:42:07.427Z,12.98
2023-04-20T00:46:31.777Z,13.65
2023-04-20T00:51:01.886Z,12.77
2023-04-20T00:55:26.565Z,12.65
2023-04-20T01:00:04.090Z,11.45
2023-04-20T01:04:31.891Z,12.60
2023-04-20T01:08:59.206Z,11.93
2023-04-20T01:13:25.738Z,13.90
2023-04-20T01:17:52.562Z,11.82
2023-04-20T01:22:22.025Z,13.17
2023-04-20T01:26:45.991Z,13.60
2023-04-20T01:31:12.036Z,13.63
2023-04-20T01:35:37.212Z,13.60
2023-04-20T01:40:03.414Z,11.32
2023-04-20T01:44:27.843Z,13.13
2023-04-20T01:48:57.936Z,12.17
2023-04-20T01:53:22.262Z,12.65
2023-04-20T01:57:48.253Z,12.75
2023-04-20T02:02:13.230Z,12.38
2023-04-20T02:06:39.338Z,14.30
2023-04-20T02:11:07.969Z,14.55
2023-04-20T02:15:37.041Z,13.02
2023-04-20T02:20:09.283Z,13.40
2023-04-20T02:24:34.381Z,14.32
2023-04-20T02:28:58.493Z,16.05
2023-04-20T02:33:32.228Z,14.07
2023-04-20T02:37:56.070Z,15.63
2023-04-20T02:42:20.316Z,16.85
2023-04-20T02:46:46.062Z,14.60
2023-04-20T02:51:14.487Z,14.83
2023-04-20T02:55:47.944Z,16.02
2023-04-20T03:00:32.008Z,13.98
2023-04-20T03:05:03.741Z,14.13
2023-04-20T03:09:41.193Z,11.40
2023-04-20T03:14:19.952Z,9.95
2023-04-20T03:18:47.568Z,9.33
2023-04-20T03:23:14.808Z,9.43
2023-04-20T03:27:43.118Z,8.35
2023-04-20T03:32:13.699Z,9.48
2023-04-20T03:36:41.412Z,8.67
2023-04-20T03:41:12.256Z,8.32
2023-04-20T03:45:37.550Z,8.82
2023-04-20T03:50:01.607Z,14.13
2023-04-20T03:54:29.211Z,9.90
2023-04-20T03:58:56.933Z,8.95
2023-04-20T04:03:27.844Z,9.23
2023-04-20T04:07:52.105Z,8.93
2023-04-20T04:12:18.145Z,9.20
2023-04-20T04:17:08.992Z,10.60
2023-04-20T04:22:07.192Z,10.40
2023-04-20T04:26:59.634Z,11.43
2023-04-20T04:31:48.775Z,11.77
2023-04-20T04:36:38.072Z,12.27
2023-04-20T04:41:26.413Z,11.25
2023-04-20T04:46:14.688Z,10.98
2023-04-20T04:50:59.284Z,11.83
2023-04-20T04:55:43.511Z,11.63
2023-04-20T05:00:29.445Z,17.90
2023-04-20T05:05:13.748Z,10.70
2023-04-20T05:09:57.970Z,12.40
2023-04-20T05:14:42.235Z,13.73
2023-04-20T05:19:30.722Z,14.68
2023-04-20T05:24:14.887Z,17.73
2023-04-20T05:28:59.302Z,16.65
2023-04-20T05:33:43.595Z,17.90
2023-04-20T05:38:29.180Z,20.40
2023-04-20T05:43:13.430Z,19.23
2023-04-20T05:47:58.144Z,17.75
2023-04-20T05:52:43.084Z,22.70
2023-04-20T05:57:31.194Z,22.03
2023-04-20T06:02:15.536Z,20.10
2023-04-20T06:07:00.207Z,20.10
2023-04-20T06:11:44.572Z,19.27
2023-04-20T06:16:30.298Z,21.80
2023-04-20T06:21:16.200Z,17.65
2023-04-20T06:26:00.673Z,14.77
2023-04-20T06:30:44.950Z,18.65
2023-04-20T06:35:26.620Z,17.70
2023-04-20T06:40:08.070Z,17.75
2023-04-20T06:44:47.641Z,17.03
2023-04-20T06:49:27.142Z,15.88
2023-04-20T06:54:08.026Z,15.05
2023-04-20T06:58:46.256Z,14.87
2023-04-20T07:03:26.245Z,16.98
2023-04-20T07:08:05.376Z,12.38
2023-04-20T07:12:46.651Z,16.13
2023-04-20T07:17:24.440Z,16.95
2023-04-20T07:22:03.937Z,17.65
2023-04-20T07:26:43.678Z,17.30
2023-04-20T07:31:24.723Z,15.60
2023-04-20T07:36:02.867Z,14.32
2023-04-20T07:40:42.353Z,12.70
2023-04-20T07:45:24.260Z,12.47
2023-04-20T07:50:06.565Z,13.48
2023-04-20T07:54:43.879Z,13.05
2023-04-20T07:59:23.406Z,12.80
2023-04-20T08:04:03.295Z,13.90
2023-04-20T08:08:45.017Z,13.20
2023-04-20T08:13:25.320Z,12.23
2023-04-20T08:18:05.628Z,12.03
2023-04-20T08:22:44.186Z,11.02
2023-04-20T08:27:25.942Z,10.27
2023-04-20T08:32:04.561Z,11.53
2023-04-20T08:36:43.775Z,11.13
2023-04-20T08:41:22.598Z,12.32
2023-04-20T08:46:03.944Z,13.40
2023-04-20T08:50:43.229Z,14.35
2023-04-20T08:55:24.370Z,12.88
2023-04-20T09:00:08.362Z,12.27
2023-04-20T09:04:49.310Z,13.67
2023-04-20T09:09:29.173Z,12.73
2023-04-20T09:14:12.548Z,11.25
2023-04-20T09:18:54.429Z,11.77
2023-04-20T09:23:35.632Z,12.00
2023-04-20T09:28:14.834Z,12.60
2023-04-20T09:33:03.043Z,11.50
2023-04-20T09:37:49.230Z,12.15
2023-04-20T09:42:29.830Z,12.70
2023-04-20T09:47:10.754Z,11.63
2023-04-20T09:51:52.833Z,13.07
2023-04-20T09:56:33.368Z,10.98
2023-04-20T10:01:13.367Z,11.35
2023-04-20T10:05:55.539Z,11.03
2023-04-20T10:10:45.084Z,10.75
2023-04-20T10:15:24.080Z,11.02
2023-04-20T10:20:04.711Z,10.40
2023-04-20T10:24:42.011Z,12.05
2023-04-20T10:29:25.863Z,11.50
2023-04-20T10:34:04.126Z,10.80
2023-04-20T10:38:45.375Z,11.00
2023-04-20T10:43:23.900Z,11.23
2023-04-20T10:48:09.664Z,11.48
2023-04-20T10:52:49.782Z,11.87
2023-04-20T10:57:29.595Z,13.02
2023-04-20T11:02:10.987Z,13.32
2023-04-20T11:06:50.486Z,11.23
2023-04-20T11:11:30.090Z,13.65
2023-04-20T11:16:13.634Z,13.05
2023-04-20T11:20:53.224Z,12.65
2023-04-20T11:25:31.874Z,12.93
2023-04-20T11:30:11.926Z,13.05
2023-04-20T11:35:06.726Z,14.57
2023-04-20T11:39:45.622Z,14.70
2023-04-20T11:44:26.138Z,14.60
2023-04-20T11:49:05.867Z,14.07
2023-04-20T11:53:45.812Z,13.63
2023-04-20T11:58:23.783Z,14.65
2023-04-20T12:03:03.825Z,14.13
2023-04-20T12:07:43.753Z,14.52
2023-04-20T12:12:23.822Z,15.53
2023-04-20T12:17:02.562Z,18.60
2023-04-20T12:21:41.804Z,16.48
2023-04-20T12:26:22.577Z,17.37
2023-04-20T12:31:05.614Z,17.17
2023-04-20T12:35:43.364Z,19.80
2023-04-20T12:40:25.221Z,16.97
2023-04-20T12:45:02.556Z,17.08
2023-04-20T12:49:43.673Z,19.45
2023-04-20T12:54:21.719Z,18.85
2023-04-20T12:59:01.146Z,16.90
2023-04-20T13:03:42.701Z,16.77
2023-04-20T13:08:21.826Z,18.52
2023-04-20T13:12:59.985Z,18.90
2023-04-20T13:17:39.478Z,18.38
2023-04-20T13:22:19.346Z,19.48
2023-04-20T13:27:00.161Z,20.00
2023-04-20T13:31:38.302Z,17.52
2023-04-20T13:36:17.708Z,19.05
2023-04-20T13:40:57.278Z,20.25
2023-04-20T13:45:38.521Z,18.50
2023-04-20T13:50:16.376Z,18.42
2023-04-20T13:54:56.180Z,20.25
2023-04-20T13:59:35.603Z,20.53
2023-04-20T14:04:16.880Z,21.00
2023-04-20T14:08:54.715Z,21.63
2023-04-20T14:13:34.965Z,23.37
2023-04-20T14:18:13.836Z,20.98
2023-04-20T14:22:54.836Z,18.83
2023-04-20T14:27:33.063Z,20.83
2023-04-20T14:32:12.601Z,23.93
2023-04-20T14:36:52.016Z,22.63
2023-04-20T14:41:35.028Z,24.13
2023-04-20T14:46:14.293Z,24.07
2023-04-20T14:50:54.694Z,22.75
2023-04-20T14:55:33.240Z,21.77
2023-04-20T15:00:15.214Z,22.47
2023-04-20T15:04:55.615Z,22.83
2023-04-20T15:09:35.246Z,21.70
2023-04-20T15:14:15.169Z,23.77
2023-04-20T15:18:55.579Z,24.30
2023-04-20T15:23:33.981Z,23.40
2023-04-20T15:28:13.479Z,24.45
2023-04-20T15:32:52.907Z,25.17
2023-04-20T15:37:33.811Z,24.13
2023-04-20T15:42:12.234Z,24.02
2023-04-20T15:46:51.456Z,22.57
2023-04-20T15:51:31.095Z,22.98
2023-04-20T15:56:12.022Z,23.95
2023-04-20T16:00:50.445Z,21.90
2023-04-20T16:05:30.007Z,23.20
2023-04-20T16:10:11.062Z,23.88
2023-04-20T16:14:51.747Z,24.25
2023-04-20T16:19:32.184Z,24.60
2023-04-20T16:24:11.216Z,24.92
2023-04-20T16:28:50.831Z,25.77
2023-04-20T16:33:32.240Z,27.70
2023-04-20T16:38:10.775Z,26.00
2023-04-20T16:42:49.315Z,25.27
2023-04-20T16:47:28.921Z,23.27
2023-04-20T16:52:10.613Z,24.03
2023-04-20T16:56:48.009Z,22.75
2023-04-20T17:01:27.614Z,27.83
2023-04-20T17:06:09.761Z,24.10
2023-04-20T17:10:51.238Z,25.38
2023-04-20T17:15:29.384Z,24.40
2023-04-20T17:20:10.177Z,25.63
2023-04-20T17:24:48.561Z,25.33
2023-04-20T17:29:34.719Z,27.17
2023-04-20T17:34:13.904Z,22.88
2023-04-20T17:38:53.202Z,24.57
2023-04-20T17:43:32.780Z,23.48
2023-04-20T17:48:14.162Z,27.58
2023-04-20T17:52:52.532Z,24.70
2023-04-20T17:57:31.937Z,24.05
2023-04-20T18:02:12.028Z,26.63
2023-04-20T18:06:53.230Z,28.77
2023-04-20T18:11:36.135Z,25.88
2023-04-20T18:16:21.942Z,27.33
2023-04-20T18:21:01.652Z,23.52
2023-04-20T18:25:42.840Z,26.97
2023-04-20T18:30:24.818Z,24.17
2023-04-20T18:35:19.712Z,29.45
2023-04-20T18:40:07.267Z,26.50
2023-04-20T18:44:56.124Z,28.55
2023-04-20T18:49:38.112Z,32.85
2023-04-20T18:54:23.598Z,31.97
2023-04-20T18:59:04.614Z,29.42
2023-04-20T19:03:48.001Z,31.73
2023-04-20T19:08:26.443Z,31.73
2023-04-20T19:13:07.000Z,34.70
2023-04-20T19:17:45.678Z,32.15
2023-04-20T19:22:32.292Z,31.63
2023-04-20T19:27:13.840Z,36.20
2023-04-20T19:31:53.839Z,32.45
2023-04-20T19:36:33.070Z,34.25
2023-04-20T19:41:17.708Z,29.60
2023-04-20T19:46:02.096Z,31.00
2023-04-20T19:50:41.024Z,33.58
2023-04-20T19:55:23.664Z,30.13
2023-04-20T20:00:10.212Z,32.60
2023-04-20T20:04:55.571Z,29.13
2023-04-20T20:09:36.129Z,30.52
2023-04-20T20:14:14.037Z,27.93
2023-04-20T20:18:56.478Z,29.17
2023-04-20T20:23:36.276Z,25.20
2023-04-20T20:28:18.788Z,25.33
2023-04-20T20:33:00.957Z,27.92
2023-04-20T20:37:42.762Z,28.55
2023-04-20T20:42:21.438Z,24.17
2023-04-20T20:47:00.533Z,25.80
2023-04-20T20:51:40.008Z,22.55
2023-04-20T20:56:21.605Z,22.73
2023-04-20T21:00:59.057Z,23.40
2023-04-20T21:05:38.422Z,24.88
2023-04-20T21:10:18.090Z,23.48
2023-04-20T21:14:59.060Z,22.70
2023-04-20T21:19:38.525Z,24.00
2023-04-20T21:24:16.750Z,20.90
2023-04-20T21:28:56.326Z,22.20
2023-04-20T21:33:37.412Z,22.07
2023-04-20T21:38:15.440Z,23.33
2023-04-20T21:42:55.075Z,22.35
2023-04-20T21:47:34.931Z,22.67
2023-04-20T21:52:15.660Z,22.23
2023-04-20T21:56:53.600Z,24.42
2023-04-20T22:01:33.249Z,22.13
2023-04-20T22:06:12.798Z,23.45
2023-04-20T22:10:54.022Z,27.80
2023-04-20T22:15:32.512Z,22.70
2023-04-20T22:20:12.986Z,26.83
2023-04-20T22:24:53.300Z,24.95
2023-04-20T22:29:35.309Z,27.02
2023-04-20T22:34:13.057Z,27.37
2023-04-20T22:38:56.464Z,31.13
2023-04-20T22:43:35.244Z,26.48
2023-04-20T22:48:20.024Z,28.67
2023-04-20T22:52:57.535Z,28.15
2023-04-20T22:57:41.776Z,30.23
2023-04-20T23:02:23.119Z,29.35
2023-04-20T23:07:04.909Z,30.90
2023-04-20T23:11:47.482Z,32.88
2023-04-20T23:16:28.237Z,32.90
2023-04-20T23:21:07.569Z,35.43
2023-04-20T23:25:48.865Z,33.00
2023-04-20T23:30:26.349Z,32.22
2023-04-20T23:35:06.578Z,36.50
2023-04-20T23:39:45.608Z,42.63
2023-04-20T23:44:28.348Z,32.70
2023-04-20T23:49:07.552Z,37.08
2023-04-20T23:53:47.582Z,36.57
2023-04-20T23:58:31.735Z,35.70
